Time;durP1;ratioP1;P1;durP2;ratioP2;P2;SDS_P1;SDS_P2;PMS_P1;PMS_P2;Temp;Humidity;BMP_temperature;BMP_pressure;BME280_temperature;BME280_humidity;BME280_pressure;Samples;Min_cycle;Max_cycle;Signal;HPM_P1;HPM_P2
2023/03/21 00:00:33;;;;;;;2.42;1.50;;;11.40;99.90;;;;;;5051912;28;20072;-36
2023/03/21 00:02:59;;;;;;;4.95;1.55;;;11.40;99.90;;;;;;5052656;28;20037;-35
2023/03/21 00:05:24;;;;;;;2.22;1.60;;;11.40;99.90;;;;;;5052305;28;20025;-37
2023/03/21 00:07:50;;;;;;;2.47;1.75;;;11.40;99.90;;;;;;5052498;28;20390;-38
2023/03/21 00:10:16;;;;;;;2.83;1.80;;;11.40;99.90;;;;;;5051571;28;20104;-36
2023/03/21 00:12:42;;;;;;;2.00;1.52;;;11.40;99.90;;;;;;5052146;28;20021;-36
2023/03/21 00:15:10;;;;;;;2.40;1.58;;;11.40;99.90;;;;;;5052231;28;20458;-38
2023/03/21 00:17:38;;;;;;;2.35;1.50;;;11.40;99.90;;;;;;5057463;28;20017;-35
2023/03/21 00:20:05;;;;;;;2.33;1.80;;;11.40;99.90;;;;;;5058448;28;20028;-38
2023/03/21 00:22:34;;;;;;;3.05;1.83;;;11.40;99.90;;;;;;5058140;28;20473;-35
2023/03/21 00:25:00;;;;;;;2.35;1.70;;;11.40;99.90;;;;;;5058168;28;20036;-37
2023/03/21 00:27:26;;;;;;;2.67;1.75;;;11.40;99.90;;;;;;5058300;28;20028;-36
2023/03/21 00:29:52;;;;;;;2.63;1.90;;;11.40;99.90;;;;;;5058763;28;20025;-38
2023/03/21 00:32:19;;;;;;;2.20;1.75;;;11.40;99.90;;;;;;5058668;28;20033;-37
2023/03/21 00:34:44;;;;;;;3.30;1.70;;;11.40;99.90;;;;;;5057834;28;20084;-35
2023/03/21 00:37:13;;;;;;;3.05;1.88;;;11.40;99.90;;;;;;5057983;28;20342;-35
2023/03/21 00:39:39;;;;;;;2.30;1.65;;;11.40;99.90;;;;;;5057539;28;20025;-38
2023/03/21 00:42:04;;;;;;;2.45;1.60;;;11.40;99.90;;;;;;5058125;28;20028;-38
2023/03/21 00:44:35;;;;;;;2.40;1.65;;;11.40;99.90;;;;;;5057580;28;20029;-36
2023/03/21 00:47:02;;;;;;;2.47;1.67;;;11.40;99.90;;;;;;5057335;28;20028;-36
2023/03/21 00:49:32;;;;;;;2.47;1.60;;;11.40;99.90;;;;;;5057327;28;20025;-36
2023/03/21 00:52:05;;;;;;;2.58;1.83;;;11.40;99.90;;;;;;5058309;28;20490;-35
2023/03/21 00:54:32;;;;;;;2.58;1.80;;;11.40;99.90;;;;;;5057814;28;20082;-35
2023/03/21 00:56:58;;;;;;;3.58;1.95;;;11.40;99.90;;;;;;5058780;28;20040;-36
2023/03/21 00:59:24;;;;;;;2.05;1.52;;;11.40;99.90;;;;;;5058529;28;20025;-35
2023/03/21 01:01:52;;;;;;;2.55;1.80;;;11.40;99.90;;;;;;5057187;28;20395;-39
2023/03/21 01:04:20;;;;;;;3.03;1.80;;;11.40;99.90;;;;;;5058051;28;20025;-36
2023/03/21 01:06:46;;;;;;;3.38;1.52;;;11.30;99.90;;;;;;5057689;28;20028;-34
2023/03/21 01:09:20;;;;;;;1.95;1.45;;;11.40;99.90;;;;;;5058680;28;20040;-38
2023/03/21 01:11:48;;;;;;;2.35;1.63;;;11.40;99.90;;;;;;5058397;28;20013;-35
2023/03/21 01:14:16;;;;;;;2.80;1.60;;;11.30;99.90;;;;;;5058467;28;20378;-36
2023/03/21 01:16:42;;;;;;;2.08;1.70;;;11.40;99.90;;;;;;5058123;28;20029;-35
2023/03/21 01:19:10;;;;;;;2.08;1.42;;;11.40;99.90;;;;;;5057991;28;20036;-35
2023/03/21 01:21:36;;;;;;;2.05;1.50;;;11.30;99.90;;;;;;5057653;28;20052;-34
2023/03/21 01:24:02;;;;;;;2.35;1.63;;;11.40;99.90;;;;;;5057877;28;20487;-36
2023/03/21 01:26:27;;;;;;;1.98;1.67;;;11.40;99.90;;;;;;5058300;28;20028;-35
2023/03/21 01:28:53;;;;;;;3.00;1.52;;;11.40;99.90;;;;;;5055559;28;20025;-35
2023/03/21 01:31:19;;;;;;;2.60;1.55;;;11.40;99.90;;;;;;5054827;28;20029;-36
2023/03/21 01:33:45;;;;;;;4.78;1.90;;;11.30;99.90;;;;;;5055355;28;20032;-37
2023/03/21 01:36:22;;;;;;;2.13;1.60;;;11.30;99.90;;;;;;5055215;28;20083;-37
2023/03/21 01:38:48;;;;;;;2.15;1.40;;;11.30;99.90;;;;;;5054725;28;20478;-34
2023/03/21 01:41:19;;;;;;;2.92;1.70;;;11.30;99.90;;;;;;5053701;28;20032;-37
2023/03/21 01:43:46;;;;;;;2.35;1.60;;;11.30;99.90;;;;;;5054885;28;20396;-36
2023/03/21 01:46:25;;;;;;;2.72;1.77;;;11.30;99.90;;;;;;5054011;28;20032;-35
2023/03/21 01:49:16;;;;;;;2.10;1.50;;;11.40;99.90;;;;;;5054504;28;20032;-35
2023/03/21 01:51:48;;;;;;;1.77;1.40;;;11.30;99.90;;;;;;5054576;28;20028;-35
2023/03/21 01:54:23;;;;;;;1.85;1.42;;;11.30;99.90;;;;;;5055337;28;20109;-36
2023/03/21 01:56:52;;;;;;;2.17;1.58;;;11.30;99.90;;;;;;5053430;28;20029;-38
2023/03/21 01:59:32;;;;;;;2.13;1.73;;;11.40;99.90;;;;;;5053460;28;20087;-37
2023/03/21 02:02:05;;;;;;;3.45;2.03;;;11.40;99.90;;;;;;5053394;28;20052;-37
2023/03/21 02:04:36;;;;;;;2.55;1.73;;;11.40;99.90;;;;;;5053424;28;20025;-39
2023/03/21 02:07:10;;;;;;;2.28;1.73;;;11.30;99.90;;;;;;5053124;28;20387;-36
2023/03/21 02:09:39;;;;;;;;;;;11.30;99.90;;;;;;5053662;28;20032;-37
2023/03/21 02:12:07;;;;;;;2.13;1.50;;;11.30;99.90;;;;;;5053188;28;20007;-37
2023/03/21 02:14:36;;;;;;;2.40;1.70;;;11.30;99.90;;;;;;5053305;28;20025;-38
2023/03/21 02:17:13;;;;;;;2.22;1.50;;;11.30;99.90;;;;;;5052897;28;20017;-40
2023/03/21 02:19:58;;;;;;;3.25;1.70;;;11.30;99.90;;;;;;5053126;28;20021;-38
2023/03/21 02:22:42;;;;;;;;;;;11.30;99.90;;;;;;5053443;28;20109;-37
2023/03/21 02:25:40;;;;;;;2.70;1.40;;;11.30;99.90;;;;;;5053026;28;19989;-38
2023/03/21 02:28:38;;;;;;;3.03;1.70;;;11.30;99.90;;;;;;5052920;28;20391;-38
2023/03/21 02:31:13;;;;;;;2.47;1.40;;;11.30;99.90;;;;;;5050923;28;20419;-38
2023/03/21 02:34:30;;;;;;;2.75;1.60;;;11.30;99.90;;;;;;5053427;28;20033;-38
2023/03/21 02:37:35;;;;;;;4.30;1.73;;;11.30;99.90;;;;;;5051024;28;20037;-38
2023/03/21 02:40:23;;;;;;;3.50;1.70;;;11.20;99.90;;;;;;5041245;28;20112;-36
2023/03/21 02:42:51;;;;;;;2.25;1.50;;;11.20;99.90;;;;;;5053363;28;20036;-36
2023/03/21 02:45:19;;;;;;;2.03;1.30;;;11.30;99.90;;;;;;5054133;28;20051;-36
2023/03/21 02:47:52;;;;;;;2.42;1.70;;;11.30;99.90;;;;;;5052942;28;20100;-36
2023/03/21 02:50:31;;;;;;;2.00;1.60;;;11.20;99.90;;;;;;5052826;28;20376;-37
2023/03/21 02:52:59;;;;;;;1.58;1.23;;;11.20;99.90;;;;;;5053326;28;20021;-38
2023/03/21 02:55:29;;;;;;;3.10;1.77;;;11.30;99.90;;;;;;5053337;28;20056;-38
2023/03/21 02:57:56;;;;;;;2.28;1.50;;;11.30;99.90;;;;;;5053783;28;20021;-38
2023/03/21 03:00:28;;;;;;;3.42;1.40;;;11.20;99.90;;;;;;5052227;28;20025;-36
2023/03/21 03:02:54;;;;;;;2.58;1.60;;;11.20;99.90;;;;;;5052867;28;20489;-35
2023/03/21 03:05:23;;;;;;;2.05;1.50;;;11.20;99.90;;;;;;5053585;28;20055;-36
2023/03/21 03:08:26;;;;;;;2.65;1.40;;;11.20;99.90;;;;;;5053804;28;20041;-35
2023/03/21 03:11:24;;;;;;;3.03;1.98;;;11.20;99.90;;;;;;5045618;28;20044;-35
2023/03/21 03:14:08;;;;;;;2.00;1.50;;;11.30;99.90;;;;;;5052867;28;20035;-35
2023/03/21 03:17:16;;;;;;;2.28;1.45;;;11.30;99.90;;;;;;5052701;28;20056;-35
2023/03/21 03:20:14;;;;;;;2.20;1.50;;;11.20;99.90;;;;;;5052528;28;20386;-35
2023/03/21 03:22:52;;;;;;;1.60;1.20;;;11.20;99.90;;;;;;5053178;28;20104;-36
2023/03/21 03:25:27;;;;;;;2.58;1.63;;;11.20;99.90;;;;;;5053475;28;20028;-36
2023/03/21 03:27:55;;;;;;;2.33;1.60;;;11.20;99.90;;;;;;5052542;28;20044;-36
2023/03/21 03:30:24;;;;;;;1.58;1.20;;;11.20;99.90;;;;;;5052642;28;20433;-35
2023/03/21 03:32:58;;;;;;;2.53;1.35;;;11.20;99.90;;;;;;5051631;28;20031;-36
2023/03/21 03:35:25;;;;;;;1.95;1.23;;;11.20;99.90;;;;;;5052913;28;20033;-35
2023/03/21 03:37:56;;;;;;;2.08;1.48;;;11.20;99.90;;;;;;5052651;28;20047;-36
2023/03/21 03:40:25;;;;;;;2.25;1.38;;;11.20;99.90;;;;;;5052612;28;20049;-35
2023/03/21 03:42:53;;;;;;;1.80;1.20;;;11.10;99.90;;;;;;5051727;28;20024;-35
2023/03/21 03:45:25;;;;;;;1.73;1.42;;;11.20;99.90;;;;;;5051732;28;20043;-34
2023/03/21 03:47:56;;;;;;;4.32;1.33;;;11.10;99.90;;;;;;5051331;28;20390;-35
2023/03/21 03:50:25;;;;;;;2.33;1.20;;;11.10;99.90;;;;;;5051924;28;20028;-37
2023/03/21 03:52:59;;;;;;;1.55;1.25;;;11.10;99.90;;;;;;5051755;28;20033;-37
2023/03/21 03:55:27;;;;;;;2.53;1.63;;;11.10;99.90;;;;;;5051744;28;20028;-36
2023/03/21 03:57:54;;;;;;;2.70;1.40;;;11.20;99.90;;;;;;5053296;28;20082;-35
2023/03/21 04:00:20;;;;;;;2.78;1.67;;;11.10;99.90;;;;;;5052212;28;20029;-35
2023/03/21 04:02:46;;;;;;;3.15;1.80;;;11.10;99.90;;;;;;5052461;28;20036;-36
2023/03/21 04:05:12;;;;;;;2.28;1.50;;;11.10;99.90;;;;;;5051608;28;20478;-35
2023/03/21 04:07:38;;;;;;;3.90;1.38;;;11.10;99.90;;;;;;5051599;28;20021;-39
2023/03/21 04:10:05;;;;;;;2.33;1.48;;;11.10;99.90;;;;;;5051413;28;20437;-34
2023/03/21 04:12:31;;;;;;;2.28;1.38;;;11.10;99.90;;;;;;5052300;28;20025;-36
2023/03/21 04:14:57;;;;;;;2.38;1.40;;;11.10;99.90;;;;;;5051562;28;20093;-36
2023/03/21 04:17:22;;;;;;;3.47;1.40;;;11.10;99.90;;;;;;5050989;28;20017;-38
2023/03/21 04:19:50;;;;;;;1.80;1.25;;;11.10;99.90;;;;;;5052629;28;20541;-35
2023/03/21 04:22:16;;;;;;;1.60;1.10;;;11.10;99.90;;;;;;5052227;28;20163;-37
2023/03/21 04:24:44;;;;;;;1.80;1.30;;;11.10;99.90;;;;;;5052165;28;20505;-39
2023/03/21 04:27:09;;;;;;;1.83;1.20;;;11.10;99.90;;;;;;5051565;28;20033;-35
2023/03/21 04:29:35;;;;;;;2.53;1.58;;;11.00;99.90;;;;;;5051335;28;20083;-36
2023/03/21 04:32:01;;;;;;;3.10;1.40;;;11.10;99.90;;;;;;5051664;28;20025;-34
2023/03/21 04:34:29;;;;;;;3.25;1.58;;;11.10;99.90;;;;;;5051651;28;20430;-36
2023/03/21 04:36:56;;;;;;;2.88;1.40;;;11.10;99.90;;;;;;5051545;28;20025;-37
2023/03/21 04:39:23;;;;;;;2.50;1.70;;;11.10;99.90;;;;;;5051290;28;20077;-35
2023/03/21 04:41:49;;;;;;;1.98;1.45;;;11.10;99.90;;;;;;5051741;28;20075;-36
2023/03/21 04:44:16;;;;;;;1.52;1.30;;;11.10;99.90;;;;;;5051997;28;20025;-35
2023/03/21 04:46:43;;;;;;;4.25;1.60;;;11.10;99.90;;;;;;5050772;28;20060;-38
2023/03/21 04:49:09;;;;;;;1.60;1.30;;;11.10;99.90;;;;;;5051912;28;20025;-35
2023/03/21 04:51:35;;;;;;;1.58;1.30;;;11.10;99.90;;;;;;5051354;28;20021;-35
2023/03/21 04:54:01;;;;;;;2.00;1.40;;;11.10;99.90;;;;;;5050874;28;20032;-38
2023/03/21 04:56:31;;;;;;;3.13;1.38;;;11.10;99.90;;;;;;5051554;28;20025;-35
2023/03/21 04:58:58;;;;;;;1.73;1.20;;;11.10;99.90;;;;;;5051640;28;20051;-35
2023/03/21 05:01:24;;;;;;;1.83;1.38;;;11.10;99.90;;;;;;5051154;28;20086;-39
2023/03/21 05:03:50;;;;;;;2.88;1.60;;;11.00;99.90;;;;;;5053384;28;20043;-36
2023/03/21 05:06:17;;;;;;;2.55;1.60;;;11.00;99.90;;;;;;5055050;28;20040;-35
2023/03/21 05:08:43;;;;;;;3.47;1.80;;;11.10;99.90;;;;;;5056209;28;20068;-35
2023/03/21 05:11:09;;;;;;;2.28;1.73;;;11.10;99.90;;;;;;5054480;28;20103;-36
2023/03/21 05:13:34;;;;;;;7.80;1.55;;;11.10;99.90;;;;;;5054334;28;20306;-36
2023/03/21 05:16:00;;;;;;;3.30;1.55;;;11.00;99.90;;;;;;5054541;28;20031;-37
2023/03/21 05:18:25;;;;;;;3.95;1.60;;;11.10;99.90;;;;;;5054961;28;20024;-37
2023/03/21 05:20:53;;;;;;;2.67;1.70;;;11.00;99.90;;;;;;5054910;28;20421;-36
2023/03/21 05:23:19;;;;;;;2.28;1.75;;;11.00;99.90;;;;;;5054926;28;20474;-35
2023/03/21 05:25:45;;;;;;;2.42;1.48;;;11.00;99.90;;;;;;5053950;28;20028;-36
2023/03/21 05:28:10;;;;;;;2.65;1.67;;;11.00;99.90;;;;;;5054607;28;20029;-35
2023/03/21 05:30:36;;;;;;;3.33;1.60;;;11.00;99.90;;;;;;5055803;28;20447;-38
2023/03/21 05:33:02;;;;;;;2.78;1.80;;;11.00;99.90;;;;;;5054874;28;20450;-39
2023/03/21 05:35:28;;;;;;;1.70;1.35;;;11.00;99.90;;;;;;5055175;28;20025;-37
2023/03/21 05:37:54;;;;;;;3.72;1.48;;;11.00;99.90;;;;;;5054657;28;20074;-36
2023/03/21 05:40:20;;;;;;;3.75;1.88;;;11.00;99.90;;;;;;5055406;28;20025;-38
2023/03/21 05:42:47;;;;;;;2.20;1.80;;;11.00;99.90;;;;;;5054136;28;20067;-35
2023/03/21 05:45:13;;;;;;;2.47;1.75;;;11.00;99.90;;;;;;5053782;28;20036;-36
2023/03/21 05:47:39;;;;;;;2.33;1.63;;;11.00;99.90;;;;;;5054214;28;20490;-35
2023/03/21 05:50:05;;;;;;;1.77;1.52;;;11.00;99.90;;;;;;5054175;28;20039;-38
2023/03/21 05:52:31;;;;;;;2.67;1.73;;;11.00;99.90;;;;;;5055186;28;20139;-36
2023/03/21 05:54:57;;;;;;;2.30;1.50;;;11.00;99.90;;;;;;5055218;28;20471;-35
2023/03/21 05:57:25;;;;;;;2.85;1.60;;;11.00;99.90;;;;;;5054835;28;20483;-39
2023/03/21 05:59:50;;;;;;;4.03;1.90;;;11.00;99.90;;;;;;5054352;28;20052;-39
2023/03/21 06:02:16;;;;;;;4.57;1.80;;;11.00;99.90;;;;;;5054466;28;20045;-35
2023/03/21 06:04:43;;;;;;;3.47;1.80;;;11.00;99.90;;;;;;5054351;28;20083;-34
2023/03/21 06:07:08;;;;;;;2.15;1.70;;;10.90;99.90;;;;;;5054381;28;20056;-35
2023/03/21 06:09:34;;;;;;;3.38;1.63;;;11.00;99.90;;;;;;5054587;28;20398;-35
2023/03/21 06:12:00;;;;;;;4.13;1.50;;;11.00;99.90;;;;;;5053205;28;20100;-35
2023/03/21 06:14:26;;;;;;;2.63;1.50;;;11.00;99.90;;;;;;5053298;28;20104;-35
2023/03/21 06:16:52;;;;;;;2.08;1.58;;;11.00;99.90;;;;;;5054303;28;20029;-36
2023/03/21 06:19:20;;;;;;;3.50;2.17;;;11.00;99.90;;;;;;5053485;28;20025;-39
2023/03/21 06:21:46;;;;;;;6.22;4.50;;;11.00;99.90;;;;;;5053606;28;20048;-36
2023/03/21 06:24:11;;;;;;;4.75;2.88;;;11.00;99.90;;;;;;5053630;28;20055;-36
2023/03/21 06:26:37;;;;;;;3.08;2.08;;;11.00;99.90;;;;;;5053612;28;20021;-37
2023/03/21 06:29:03;;;;;;;2.88;2.20;;;11.00;99.90;;;;;;5053423;28;20390;-39
2023/03/21 06:31:29;;;;;;;3.67;2.08;;;11.00;99.90;;;;;;5053194;28;20120;-36
2023/03/21 06:33:55;;;;;;;3.08;1.80;;;11.00;99.90;;;;;;5054425;28;20012;-35
2023/03/21 06:36:21;;;;;;;4.07;1.98;;;11.00;99.90;;;;;;5053797;28;20028;-38
2023/03/21 06:38:47;;;;;;;3.40;2.15;;;11.00;99.90;;;;;;5053321;28;20044;-35
2023/03/21 06:41:13;;;;;;;3.00;2.17;;;11.00;99.90;;;;;;5053751;28;20399;-35
2023/03/21 06:43:39;;;;;;;3.58;2.20;;;10.90;99.90;;;;;;5052621;28;20405;-39
2023/03/21 06:46:04;;;;;;;3.00;1.90;;;10.90;99.90;;;;;;5053918;28;20029;-42
2023/03/21 06:48:31;;;;;;;3.35;1.70;;;10.90;99.90;;;;;;5052803;28;20025;-37
2023/03/21 06:50:57;;;;;;;3.58;1.85;;;10.90;99.90;;;;;;5053740;28;20391;-35
2023/03/21 06:53:26;;;;;;;3.05;1.70;;;11.00;99.90;;;;;;5054352;28;20032;-38
2023/03/21 06:55:53;;;;;;;2.80;2.00;;;11.00;99.90;;;;;;5053615;28;20047;-37
2023/03/21 06:58:20;;;;;;;2.20;1.80;;;11.00;99.90;;;;;;5054220;28;20082;-34
2023/03/21 07:00:46;;;;;;;1.75;1.48;;;10.90;99.90;;;;;;5052083;28;20041;-36
2023/03/21 07:03:12;;;;;;;3.90;1.80;;;10.90;99.90;;;;;;5053176;28;20033;-35
2023/03/21 07:05:39;;;;;;;3.58;1.80;;;11.00;99.90;;;;;;5053780;28;20021;-36
2023/03/21 07:08:07;;;;;;;2.55;1.80;;;11.00;99.90;;;;;;5052377;28;20027;-37
2023/03/21 07:10:32;;;;;;;2.80;1.60;;;11.00;99.90;;;;;;5053160;28;20418;-35
2023/03/21 07:12:58;;;;;;;2.42;1.60;;;11.00;99.90;;;;;;5052776;28;20025;-38
2023/03/21 07:15:24;;;;;;;3.03;1.83;;;11.00;99.90;;;;;;5052511;28;20029;-36
2023/03/21 07:17:51;;;;;;;2.15;1.60;;;11.00;99.90;;;;;;5052888;28;20559;-35
2023/03/21 07:20:16;;;;;;;3.13;1.80;;;11.10;99.90;;;;;;5053203;28;20021;-37
2023/03/21 07:22:42;;;;;;;2.05;1.50;;;11.10;99.90;;;;;;5052958;28;20033;-36
2023/03/21 07:25:10;;;;;;;2.33;1.50;;;11.10;99.90;;;;;;5053124;28;20032;-35
2023/03/21 07:27:36;;;;;;;2.13;1.48;;;11.10;99.90;;;;;;5052554;28;20071;-34
2023/03/21 07:30:03;;;;;;;2.20;1.33;;;11.10;99.90;;;;;;5052567;28;20482;-36
2023/03/21 07:32:32;;;;;;;2.22;1.45;;;11.10;99.90;;;;;;5052862;28;20005;-40
2023/03/21 07:34:59;;;;;;;2.00;1.42;;;11.10;99.90;;;;;;5052904;28;20033;-36
2023/03/21 07:37:25;;;;;;;1.80;1.40;;;11.20;99.90;;;;;;5052433;28;20025;-36
2023/03/21 07:39:51;;;;;;;2.05;1.63;;;11.20;99.90;;;;;;5051875;28;20017;-35
2023/03/21 07:42:17;;;;;;;2.20;1.40;;;11.20;99.90;;;;;;5053221;28;20027;-37
2023/03/21 07:44:44;;;;;;;2.60;1.67;;;11.20;99.90;;;;;;5052041;28;20041;-35
2023/03/21 07:47:09;;;;;;;1.77;1.33;;;11.20;99.90;;;;;;5052126;28;20032;-38
2023/03/21 07:49:36;;;;;;;5.05;2.20;;;11.20;99.90;;;;;;5051930;28;20103;-35
2023/03/21 07:52:02;;;;;;;7.80;2.25;;;11.20;99.90;;;;;;5051984;28;20139;-40
2023/03/21 07:54:29;;;;;;;4.95;2.33;;;11.20;99.90;;;;;;5052916;28;20025;-41
2023/03/21 07:56:56;;;;;;;5.60;2.20;;;11.20;99.90;;;;;;5052182;28;20047;-37
2023/03/21 07:59:21;;;;;;;2.70;1.88;;;11.20;99.90;;;;;;5052360;28;20441;-39
2023/03/21 08:01:47;;;;;;;3.15;1.85;;;11.20;99.90;;;;;;5052669;28;20054;-37
2023/03/21 08:04:13;;;;;;;2.75;1.80;;;11.10;99.90;;;;;;5052073;28;20082;-40
2023/03/21 08:06:39;;;;;;;3.45;2.13;;;11.10;99.90;;;;;;5051137;28;20033;-40
2023/03/21 08:09:05;;;;;;;3.33;1.83;;;11.10;99.90;;;;;;5052747;28;20033;-35
2023/03/21 08:11:30;;;;;;;3.50;2.08;;;11.20;99.90;;;;;;5051707;28;20486;-37
2023/03/21 08:14:00;;;;;;;2.00;1.52;;;11.20;99.90;;;;;;5051611;28;20094;-37
2023/03/21 08:16:26;;;;;;;2.83;1.90;;;11.20;99.90;;;;;;5051001;28;20025;-38
2023/03/21 08:18:52;;;;;;;3.35;2.22;;;11.20;99.90;;;;;;5052186;28;20251;-38
2023/03/21 08:21:17;;;;;;;3.88;2.00;;;11.20;99.90;;;;;;5052732;28;20390;-38
2023/03/21 08:23:44;;;;;;;2.88;1.65;;;11.20;99.90;;;;;;5052609;28;20033;-38
2023/03/21 08:26:09;;;;;;;3.90;1.60;;;11.30;99.90;;;;;;5053088;28;20047;-36
2023/03/21 08:28:38;;;;;;;3.65;1.70;;;11.30;99.90;;;;;;5052645;28;20454;-35
2023/03/21 08:31:11;;;;;;;3.70;1.80;;;11.30;99.90;;;;;;5051940;28;20035;-40
2023/03/21 08:33:37;;;;;;;4.97;1.58;;;11.30;99.90;;;;;;5050861;28;20043;-38
2023/03/21 08:36:03;;;;;;;4.20;1.40;;;11.30;99.90;;;;;;5050782;28;20017;-35
2023/03/21 08:38:30;;;;;;;2.53;1.35;;;11.40;99.90;;;;;;5054498;28;20033;-38
2023/03/21 08:40:56;;;;;;;2.67;1.55;;;11.40;99.90;;;;;;5055517;28;20087;-35
2023/03/21 08:43:22;;;;;;;2.38;1.60;;;11.40;99.90;;;;;;5054855;28;20032;-37
2023/03/21 08:45:48;;;;;;;3.28;1.52;;;11.40;99.90;;;;;;5055958;28;20112;-38
2023/03/21 08:48:14;;;;;;;2.22;1.48;;;11.40;99.90;;;;;;5055957;28;20029;-39
2023/03/21 08:50:40;;;;;;;2.10;1.33;;;11.50;99.90;;;;;;5056720;28;20389;-36
2023/03/21 08:53:06;;;;;;;1.85;1.40;;;11.50;99.90;;;;;;5056256;28;20119;-36
2023/03/21 08:55:32;;;;;;;3.35;1.60;;;11.50;99.90;;;;;;5056082;28;20055;-38
2023/03/21 08:57:58;;;;;;;2.25;1.30;;;11.50;99.90;;;;;;5056079;28;20040;-40
2023/03/21 09:00:24;;;;;;;2.25;1.30;;;11.50;99.90;;;;;;5054712;28;20079;-38
2023/03/21 09:02:51;;;;;;;2.60;1.40;;;11.50;99.90;;;;;;5056952;28;20036;-36
2023/03/21 09:05:17;;;;;;;2.95;1.45;;;11.60;99.90;;;;;;5055812;28;20537;-36
2023/03/21 09:07:43;;;;;;;2.97;1.30;;;11.60;99.90;;;;;;5056025;28;20555;-38
2023/03/21 09:10:16;;;;;;;2.78;1.27;;;11.60;99.90;;;;;;5055705;28;20112;-39
2023/03/21 09:12:42;;;;;;;1.85;1.20;;;11.60;99.90;;;;;;5056366;28;20025;-39
2023/03/21 09:15:10;;;;;;;1.83;1.35;;;11.60;99.90;;;;;;5055955;28;20056;-39
2023/03/21 09:17:40;;;;;;;1.98;1.17;;;11.60;99.90;;;;;;5056712;28;20100;-37
2023/03/21 09:20:10;;;;;;;2.33;1.27;;;11.60;99.90;;;;;;5056998;28;20360;-35
2023/03/21 09:22:37;;;;;;;1.85;1.25;;;11.60;99.90;;;;;;5055749;28;20100;-35
2023/03/21 09:25:03;;;;;;;2.10;1.33;;;11.60;99.90;;;;;;5054584;28;20055;-36
2023/03/21 09:27:29;;;;;;;2.25;1.45;;;11.70;99.90;;;;;;5054124;28;20029;-36
2023/03/21 09:29:56;;;;;;;1.52;1.10;;;11.70;99.90;;;;;;5055082;28;20028;-37
2023/03/21 09:32:22;;;;;;;3.38;1.23;;;11.70;99.90;;;;;;5054111;28;20028;-36
2023/03/21 09:34:48;;;;;;;1.85;1.20;;;11.70;99.90;;;;;;5054620;28;20017;-35
2023/03/21 09:37:14;;;;;;;1.95;1.40;;;11.70;99.90;;;;;;5055303;28;20070;-36
2023/03/21 09:39:41;;;;;;;1.75;1.38;;;11.70;99.90;;;;;;5053973;28;20044;-38
2023/03/21 09:42:41;;;;;;;1.85;1.20;;;11.70;99.90;;;;;;5053909;28;20071;-38
2023/03/21 09:45:33;;;;;;;2.08;1.35;;;11.80;99.90;;;;;;5053898;28;20029;-37
2023/03/21 09:48:01;;;;;;;2.45;1.00;;;11.80;99.90;;;;;;5054968;28;20091;-39
2023/03/21 09:50:36;;;;;;;2.65;1.25;;;11.80;99.90;;;;;;5053305;28;20029;-41
2023/03/21 09:53:08;;;;;;;1.33;1.00;;;11.70;99.90;;;;;;5053895;28;20029;-35
2023/03/21 09:55:36;;;;;;;1.58;1.05;;;11.80;99.90;;;;;;5053582;28;20100;-35
2023/03/21 09:58:21;;;;;;;1.95;1.27;;;11.80;99.90;;;;;;5053346;28;20028;-37
2023/03/21 10:00:55;;;;;;;1.20;1.00;;;11.80;99.90;;;;;;5053487;28;20025;-38
2023/03/21 10:03:25;;;;;;;3.03;1.23;;;11.80;99.90;;;;;;5053639;28;20029;-36
2023/03/21 10:05:57;;;;;;;5.00;2.00;;;11.80;99.90;;;;;;5053310;28;20029;-35
2023/03/21 10:08:35;;;;;;;5.25;1.98;;;11.80;99.90;;;;;;5054063;28;20032;-35
2023/03/21 10:11:18;;;;;;;2.97;1.90;;;11.80;99.90;;;;;;5055259;28;20025;-38
2023/03/21 10:14:13;;;;;;;3.97;1.83;;;11.80;99.90;;;;;;5054304;28;20017;-35
2023/03/21 10:16:47;;;;;;;2.25;1.38;;;11.90;99.90;;;;;;5044791;28;20055;-37
2023/03/21 10:19:15;;;;;;;2.20;1.50;;;11.90;99.90;;;;;;5053971;28;20025;-35
2023/03/21 10:21:45;;;;;;;2.10;1.40;;;11.90;99.90;;;;;;5053581;28;20021;-38
2023/03/21 10:24:20;;;;;;;2.35;1.42;;;11.90;99.90;;;;;;5053563;28;20108;-36
2023/03/21 10:26:48;;;;;;;2.35;1.60;;;11.80;99.90;;;;;;5053445;28;20029;-39
2023/03/21 10:29:16;;;;;;;1.75;1.23;;;11.80;99.90;;;;;;5053949;28;20079;-35
2023/03/21 10:31:43;;;;;;;2.33;1.35;;;11.80;99.90;;;;;;5053282;28;20032;-37
2023/03/21 10:34:17;;;;;;;2.72;1.17;;;11.80;99.90;;;;;;5053180;28;20024;-36
2023/03/21 10:36:44;;;;;;;3.53;1.15;;;11.80;99.90;;;;;;5052755;28;20021;-38
2023/03/21 10:39:35;;;;;;;2.13;1.20;;;11.80;99.90;;;;;;5052994;28;20136;-36
2023/03/21 10:42:01;;;;;;;1.77;1.13;;;11.80;99.90;;;;;;5050031;28;20029;-39
2023/03/21 10:44:34;;;;;;;1.95;1.13;;;11.80;99.90;;;;;;5052895;28;20372;-40
2023/03/21 10:47:07;;;;;;;1.57;1.00;;;11.80;99.90;;;;;;5053342;28;20479;-40
2023/03/21 10:49:33;;;;;;;1.00;0.90;;;11.80;99.90;;;;;;5053762;28;20013;-36
2023/03/21 10:52:04;;;;;;;2.78;1.17;;;11.80;99.90;;;;;;5052716;28;20033;-36
2023/03/21 10:54:32;;;;;;;1.35;0.95;;;11.80;99.90;;;;;;5052975;28;20025;-35
2023/03/21 10:57:04;;;;;;;1.67;1.10;;;11.90;99.90;;;;;;5052642;28;20242;-35
2023/03/21 10:59:46;;;;;;;2.35;1.25;;;11.90;99.90;;;;;;5052917;28;20021;-39
2023/03/21 11:02:27;;;;;;;2.55;0.82;;;11.90;99.90;;;;;;5052403;28;20052;-35
2023/03/21 11:04:54;;;;;;;1.85;1.00;;;11.90;99.90;;;;;;5053603;28;20475;-38
2023/03/21 11:07:22;;;;;;;1.88;1.05;;;11.90;99.90;;;;;;5052213;28;20020;-35
2023/03/21 11:09:53;;;;;;;3.65;1.52;;;11.90;99.90;;;;;;5052155;28;20475;-35
2023/03/21 11:12:32;;;;;;;5.07;2.40;;;11.90;99.90;;;;;;5051990;28;20068;-35
2023/03/21 11:15:25;;;;;;;3.80;2.55;;;11.90;99.90;;;;;;5052375;28;20535;-35
2023/03/21 11:17:50;;;;;;;4.50;2.60;;;11.90;99.90;;;;;;5051907;28;20036;-35
2023/03/21 11:20:19;;;;;;;5.55;2.55;;;12.00;99.90;;;;;;5052119;28;20063;-35
2023/03/21 11:22:46;;;;;;;3.88;2.20;;;11.90;99.90;;;;;;5052153;28;20426;-35
2023/03/21 11:25:30;;;;;;;2.83;2.05;;;11.90;99.90;;;;;;5052083;28;20029;-35
2023/03/21 11:27:56;;;;;;;3.47;2.22;;;11.90;99.90;;;;;;5051895;28;20052;-35
2023/03/21 11:30:25;;;;;;;3.08;2.00;;;11.90;99.90;;;;;;5051853;28;20060;-35
2023/03/21 11:32:56;;;;;;;2.65;1.90;;;11.90;99.90;;;;;;5051869;28;20059;-35
2023/03/21 11:35:26;;;;;;;5.47;2.22;;;11.90;99.90;;;;;;5051743;28;20017;-35
2023/03/21 11:37:55;;;;;;;2.67;1.90;;;12.00;99.90;;;;;;5051779;28;20052;-35
2023/03/21 11:40:22;;;;;;;4.07;2.33;;;11.90;99.90;;;;;;5051704;28;20024;-35
2023/03/21 11:42:56;;;;;;;3.53;1.50;;;11.90;99.90;;;;;;5051581;28;20048;-36
2023/03/21 11:45:27;;;;;;;2.85;1.42;;;11.90;99.90;;;;;;5051588;28;20039;-37
2023/03/21 11:47:55;;;;;;;3.38;1.55;;;11.90;99.90;;;;;;5051324;28;20116;-35
2023/03/21 11:50:21;;;;;;;2.90;1.58;;;11.90;99.90;;;;;;5051396;28;20394;-35
2023/03/21 11:52:58;;;;;;;2.72;1.50;;;11.90;99.90;;;;;;5051119;28;20025;-36
2023/03/21 11:55:52;;;;;;;4.30;1.30;;;11.90;99.90;;;;;;5051316;28;20017;-35
2023/03/21 11:58:29;;;;;;;3.42;1.60;;;11.90;99.90;;;;;;5031849;28;20047;-35
2023/03/21 12:01:26;;;;;;;3.90;1.30;;;11.90;99.90;;;;;;5052883;28;20056;-35
2023/03/21 12:04:10;;;;;;;2.25;1.33;;;11.90;99.90;;;;;;5052399;28;20017;-38
2023/03/21 12:06:40;;;;;;;1.70;1.23;;;11.90;99.90;;;;;;5052485;28;20029;-35
2023/03/21 12:09:17;;;;;;;1.58;1.10;;;11.90;99.90;;;;;;5052870;28;20029;-40
2023/03/21 12:12:01;;;;;;;3.33;0.85;;;11.90;99.90;;;;;;5052728;28;20112;-38
2023/03/21 12:14:44;;;;;;;3.63;1.08;;;11.90;99.90;;;;;;5053139;28;20029;-35
2023/03/21 12:17:37;;;;;;;1.63;1.08;;;11.90;99.90;;;;;;5051150;28;20025;-40
2023/03/21 12:20:25;;;;;;;1.63;1.30;;;11.90;99.90;;;;;;5052722;28;20063;-39
2023/03/21 12:23:11;;;;;;;1.98;0.85;;;11.90;99.90;;;;;;5051337;28;20028;-38
2023/03/21 12:25:44;;;;;;;2.50;1.20;;;11.90;99.90;;;;;;5053246;28;20048;-37
2023/03/21 12:28:38;;;;;;;1.60;0.80;;;11.90;99.90;;;;;;5052396;28;20056;-39
2023/03/21 12:31:11;;;;;;;2.70;1.00;;;11.90;99.90;;;;;;5051616;28;20039;-38
2023/03/21 12:34:07;;;;;;;1.20;0.73;;;11.90;99.90;;;;;;5052485;28;20064;-38
2023/03/21 12:36:45;;;;;;;1.13;0.73;;;11.90;99.90;;;;;;5052129;28;20022;-39
2023/03/21 12:39:22;;;;;;;1.75;1.00;;;11.90;99.90;;;;;;5051184;28;20025;-35
2023/03/21 12:42:24;;;;;;;1.80;1.00;;;11.90;99.90;;;;;;5052456;28;20025;-37
2023/03/21 12:45:10;;;;;;;1.17;0.90;;;11.90;99.90;;;;;;5052208;28;20095;-36
2023/03/21 12:47:40;;;;;;;0.98;0.77;;;11.90;99.90;;;;;;5051845;28;20116;-38
2023/03/21 12:50:24;;;;;;;1.77;0.90;;;11.90;99.90;;;;;;5051787;28;20089;-35
2023/03/21 12:53:19;;;;;;;2.00;1.20;;;11.80;99.90;;;;;;5051993;28;20047;-38
2023/03/21 12:55:45;;;;;;;2.45;0.90;;;11.80;99.90;;;;;;5050884;28;20025;-37
2023/03/21 12:58:18;;;;;;;1.52;0.80;;;11.80;99.90;;;;;;5050705;28;20035;-38
2023/03/21 13:00:52;;;;;;;1.45;1.00;;;11.80;99.90;;;;;;5050720;28;20036;-35
2023/03/21 13:03:42;;;;;;;2.97;0.70;;;11.80;99.90;;;;;;5050693;28;20433;-36
2023/03/21 13:06:11;;;;;;;1.10;0.80;;;11.80;99.90;;;;;;5050581;28;20107;-35